Time;durP1;ratioP1;P1;durP2;ratioP2;P2;SDS_P1;SDS_P2;PMS_P1;PMS_P2;Temp;Humidity;BMP_temperature;BMP_pressure;BME280_temperature;BME280_humidity;BME280_pressure;Samples;Min_cycle;Max_cycle;Signal;HPM_P1;HPM_P2
2022/03/26 00:01:49;;;;;;;;;33.00;31.25;;;;;9.53;67.10;103164.72;4972819;28;11266;-70
2022/03/26 00:04:17;;;;;;;;;30.25;25.25;;;;;9.59;66.90;103162.50;4972757;28;11575;-73
2022/03/26 00:06:43;;;;;;;;;30.00;25.50;;;;;9.59;66.80;103152.53;4973017;28;11043;-72
2022/03/26 00:09:10;;;;;;;;;41.50;32.75;;;;;9.54;66.54;103162.88;4972301;28;11047;-71
2022/03/26 00:11:36;;;;;;;;;39.50;32.75;;;;;9.51;67.43;103163.13;4972553;28;11431;-70
2022/03/26 00:14:03;;;;;;;;;35.50;32.75;;;;;9.52;67.46;103159.44;4972035;28;11469;-72
2022/03/26 00:16:29;;;;;;;;;25.75;23.00;;;;;9.50;67.22;103164.97;4970575;28;11539;-70
2022/03/26 00:18:56;;;;;;;;;36.00;32.00;;;;;9.32;67.97;103166.47;4971905;28;11158;-70
2022/03/26 00:21:22;;;;;;;;;26.00;24.50;;;;;9.47;67.65;103165.22;4971369;28;11342;-72
2022/03/26 00:23:49;;;;;;;;;45.00;31.00;;;;;9.49;67.83;103162.41;4972994;28;11138;-72
2022/03/26 00:26:16;;;;;;;;;28.00;22.00;;;;;9.51;67.35;103168.53;4972854;28;11575;-72
2022/03/26 00:28:42;;;;;;;;;33.00;24.75;;;;;9.56;67.51;103169.88;4972618;28;10995;-71
2022/03/26 00:31:09;;;;;;;;;35.00;29.50;;;;;9.52;67.54;103163.00;4971642;28;11349;-71
2022/03/26 00:33:36;;;;;;;;;22.00;21.75;;;;;9.49;67.85;103170.50;4971268;28;11588;-72
2022/03/26 00:36:03;;;;;;;;;33.50;30.50;;;;;9.48;67.92;103168.78;4982626;28;11077;-72
2022/03/26 00:38:30;;;;;;;;;28.50;24.00;;;;;9.35;68.16;103170.75;4953266;28;11639;-72
2022/03/26 00:40:56;;;;;;;;;34.50;30.00;;;;;9.32;68.52;103174.56;4952947;28;11352;-71
2022/03/26 00:43:23;;;;;;;;;36.50;32.00;;;;;9.41;68.24;103173.81;4963599;28;11233;-71
2022/03/26 00:45:50;;;;;;;;;34.50;27.50;;;;;9.43;68.24;103174.59;4978953;28;11689;-72
2022/03/26 00:48:17;;;;;;;;;25.75;22.75;;;;;9.37;67.93;103168.78;4969904;28;11253;-72
2022/03/26 00:50:43;;;;;;;;;35.25;32.75;;;;;9.33;68.24;103178.13;4970163;28;11267;-72
2022/03/26 00:53:10;;;;;;;;;35.50;28.50;;;;;9.31;68.53;103166.59;4972101;28;11559;-72
2022/03/26 00:55:36;;;;;;;;;33.50;27.25;;;;;9.24;68.91;103177.91;4971316;28;11581;-72
2022/03/26 00:58:03;;;;;;;;;30.25;28.00;;;;;9.25;69.24;103171.50;4971383;28;11381;-73
2022/03/26 01:00:29;;;;;;;;;26.00;25.00;;;;;9.28;69.21;103175.81;4972198;28;11685;-72
2022/03/26 01:02:57;;;;;;;;;34.00;27.25;;;;;9.25;69.18;103174.22;4970183;28;11151;-72
2022/03/26 01:05:23;;;;;;;;;36.25;32.75;;;;;9.18;69.46;103175.69;4986950;28;11345;-71
2022/03/26 01:07:52;;;;;;;;;23.00;23.00;;;;;9.15;69.69;103175.06;4972031;28;11582;-71
2022/03/26 01:10:18;;;;;;;;;37.00;32.25;;;;;9.18;69.97;103172.13;4986068;28;11393;-72
2022/03/26 01:12:45;;;;;;;;;35.50;31.50;;;;;9.18;70.15;103166.72;4971866;28;11556;-73
2022/03/26 01:15:11;;;;;;;;;36.75;31.50;;;;;9.16;70.34;103171.38;4972064;28;11722;-73
2022/03/26 01:17:38;;;;;;;;;44.50;35.00;;;;;9.05;70.70;103160.56;4975757;28;11611;-72
2022/03/26 01:20:05;;;;;;;;;41.75;35.25;;;;;9.06;70.97;103168.56;4971669;28;11549;-72
2022/03/26 01:22:31;;;;;;;;;41.25;36.25;;;;;8.98;71.41;103164.75;4970387;28;11582;-70
2022/03/26 01:24:58;;;;;;;;;38.25;33.00;;;;;8.98;71.33;103162.03;4971496;28;11594;-70
2022/03/26 01:27:24;;;;;;;;;44.25;38.00;;;;;8.89;71.41;103155.50;4972043;28;11556;-71
2022/03/26 01:29:51;;;;;;;;;39.75;36.50;;;;;8.91;71.80;103159.81;4971125;28;11588;-71
2022/03/26 01:32:17;;;;;;;;;49.00;41.25;;;;;8.91;72.14;103161.66;4971304;28;11640;-71
2022/03/26 01:34:44;;;;;;;;;38.00;27.75;;;;;8.92;71.94;103157.97;4971601;28;11712;-70
2022/03/26 01:37:10;;;;;;;;;36.75;34.00;;;;;8.94;71.58;103148.78;4970531;28;11698;-70
2022/03/26 01:39:36;;;;;;;;;40.00;33.75;;;;;8.92;72.18;103158.84;4971747;28;11664;-70
2022/03/26 01:42:05;;;;;;;;;33.75;30.75;;;;;8.93;72.70;103159.72;4970607;28;12454;-70
2022/03/26 01:44:31;;;;;;;;;33.25;22.25;;;;;8.98;72.61;103162.03;4970296;28;11571;-71
2022/03/26 01:46:59;;;;;;;;;39.50;29.75;;;;;8.93;72.52;103154.31;4950804;28;12422;-70
2022/03/26 01:49:27;;;;;;;;;41.00;28.50;;;;;8.83;72.51;103158.69;4952206;28;11696;-70
2022/03/26 01:51:53;;;;;;;;;37.25;32.50;;;;;8.82;73.08;103156.97;4965134;28;11467;-72
2022/03/26 01:54:20;;;;;;;;;35.25;32.50;;;;;8.94;73.25;103156.88;4971329;28;11572;-72
2022/03/26 01:56:46;;;;;;;;;41.00;36.50;;;;;8.91;73.57;103148.13;4970406;28;11672;-73
2022/03/26 01:59:13;;;;;;;;;35.25;27.25;;;;;8.94;73.66;103148.78;4971497;28;11536;-71
2022/03/26 02:01:42;;;;;;;;;37.25;31.00;;;;;8.99;73.42;103148.41;4969831;28;11581;-72
2022/03/26 02:04:09;;;;;;;;;38.75;36.25;;;;;8.99;74.27;103144.84;4972540;28;12351;-70
2022/03/26 02:06:39;;;;;;;;;42.50;34.25;;;;;8.96;74.08;103151.38;4972360;28;11563;-70
2022/03/26 02:09:09;;;;;;;;;37.75;31.75;;;;;8.87;74.14;103146.66;4971710;28;11571;-70
2022/03/26 02:11:37;;;;;;;;;46.00;38.50;;;;;8.87;74.68;103149.38;4970087;28;11641;-70
2022/03/26 02:14:07;;;;;;;;;43.50;36.75;;;;;8.90;75.09;103144.56;4970593;28;11660;-70
2022/03/26 02:16:35;;;;;;;;;37.25;29.25;;;;;8.94;74.81;103146.09;4968572;28;11545;-70
2022/03/26 02:19:03;;;;;;;;;43.25;38.50;;;;;8.84;75.02;103145.06;4982324;28;12305;-71
2022/03/26 02:21:31;;;;;;;;;30.50;26.75;;;;;8.87;75.46;103149.38;4960820;28;11541;-72
2022/03/26 02:23:58;;;;;;;;;55.75;41.50;;;;;8.86;75.66;103153.06;4969586;28;11624;-72
2022/03/26 02:26:26;;;;;;;;;38.00;33.50;;;;;8.89;75.61;103145.56;4970394;28;12313;-71
2022/03/26 02:28:53;;;;;;;;;42.50;38.50;;;;;8.85;75.83;103152.19;4971202;28;11534;-70
2022/03/26 02:31:20;;;;;;;;;40.25;34.00;;;;;8.87;75.67;103146.66;4970903;28;11574;-70
2022/03/26 02:33:48;;;;;;;;;47.00;42.50;;;;;8.84;75.82;103141.50;4970998;28;11555;-72
2022/03/26 02:36:15;;;;;;;;;41.50;38.25;;;;;8.76;76.17;103144.81;4969031;28;11543;-70
2022/03/26 02:38:41;;;;;;;;;39.25;36.00;;;;;8.73;76.74;103146.91;4966570;28;11756;-72
2022/03/26 02:41:08;;;;;;;;;49.00;41.75;;;;;8.75;76.51;103142.25;4970601;28;11625;-72
2022/03/26 02:43:35;;;;;;;;;41.00;37.00;;;;;8.68;76.87;103141.88;4970079;28;11631;-72
2022/03/26 02:46:03;;;;;;;;;57.25;43.75;;;;;8.67;76.69;103147.38;4970725;28;11697;-72
2022/03/26 02:48:31;;;;;;;;;45.25;40.00;;;;;8.68;77.46;103141.88;4969362;28;11601;-72
2022/03/26 02:50:57;;;;;;;;;42.75;37.50;;;;;8.69;77.22;103145.44;4970541;28;12351;-71
2022/03/26 02:53:24;;;;;;;;;53.25;42.00;;;;;8.67;76.76;103137.44;4968689;28;11621;-71
2022/03/26 02:55:52;;;;;;;;;56.00;44.50;;;;;8.67;77.49;103140.13;4970825;28;11540;-71
2022/03/26 02:58:19;;;;;;;;;42.00;33.50;;;;;8.62;77.47;103140.50;4970557;28;12386;-71
2022/03/26 03:00:46;;;;;;;;;44.25;41.50;;;;;8.57;77.91;103137.31;4969520;28;11556;-71
2022/03/26 03:03:12;;;;;;;;;55.25;41.75;;;;;8.57;77.72;103131.03;4969190;28;11684;-71
2022/03/26 03:05:39;;;;;;;;;50.50;43.25;;;;;8.53;78.06;103129.56;4970542;28;11623;-71
2022/03/26 03:08:05;;;;;;;;;35.75;35.25;;;;;8.51;78.18;103134.22;4968742;28;11747;-71
2022/03/26 03:10:32;;;;;;;;;49.00;41.00;;;;;8.54;77.91;103123.19;4969965;28;11603;-71
2022/03/26 03:12:59;;;;;;;;;54.75;41.00;;;;;8.59;78.17;103138.03;4969216;28;11603;-72
2022/03/26 03:15:25;;;;;;;;;32.00;28.00;;;;;8.55;78.39;103125.75;4973639;28;11581;-71
2022/03/26 03:17:52;;;;;;;;;56.50;41.75;;;;;8.51;78.74;103126.13;4972221;28;11536;-71
2022/03/26 03:20:19;;;;;;;;;46.75;42.75;;;;;8.51;77.94;103124.28;4973256;28;12366;-71
2022/03/26 03:22:46;;;;;;;;;53.25;42.75;;;;;8.53;78.38;103132.25;4972928;28;12332;-71
2022/03/26 03:25:12;;;;;;;;;48.75;41.75;;;;;8.57;78.73;103131.03;4972691;28;12323;-73
2022/03/26 03:27:40;;;;;;;;;44.50;35.00;;;;;8.59;78.33;103129.94;4973766;28;11647;-72
2022/03/26 03:30:07;;;;;;;;;62.00;42.50;;;;;8.61;78.50;103129.81;4973597;28;11587;-73
2022/03/26 03:32:34;;;;;;;;;53.25;41.50;;;;;8.63;78.56;103135.94;4973464;28;11670;-72
2022/03/26 03:35:00;;;;;;;;;51.75;40.50;;;;;8.63;78.72;103134.09;4970982;28;11657;-72
2022/03/26 03:37:27;;;;;;;;;54.50;43.00;;;;;8.61;78.65;103127.13;4972590;28;11607;-73
2022/03/26 03:39:53;;;;;;;;;51.25;41.50;;;;;8.61;78.87;103133.38;4960967;28;11723;-71
2022/03/26 03:42:20;;;;;;;;;59.00;45.00;;;;;8.58;78.89;103135.47;4973276;28;11691;-72
2022/03/26 03:44:46;;;;;;;;;54.75;43.00;;;;;8.58;79.20;103132.75;4973738;28;11622;-71
2022/03/26 03:47:12;;;;;;;;;41.75;32.00;;;;;8.59;79.33;103140.75;4973371;28;11734;-72
2022/03/26 03:49:39;;;;;;;;;47.00;38.50;;;;;8.53;79.50;103141.22;4972354;28;11640;-72
2022/03/26 03:52:06;;;;;;;;;55.25;42.50;;;;;8.54;79.66;103139.38;4973108;28;11562;-72
2022/03/26 03:54:32;;;;;;;;;57.25;42.25;;;;;8.50;79.69;103140.59;4972327;28;11577;-71
2022/03/26 03:56:59;;;;;;;;;50.50;42.00;;;;;8.47;80.32;103144.41;4972330;28;11781;-71
2022/03/26 03:59:25;;;;;;;;;58.25;42.75;;;;;8.48;80.26;103134.47;4972115;28;11698;-71
2022/03/26 04:01:51;;;;;;;;;60.75;44.25;;;;;8.43;80.57;103136.66;4972816;28;11619;-72
2022/03/26 04:04:18;;;;;;;;;45.25;39.00;;;;;8.44;80.70;103139.25;4967247;28;11638;-72
2022/03/26 04:06:45;;;;;;;;;39.50;32.25;;;;;8.43;80.66;103137.53;4971474;28;11562;-71
2022/03/26 04:09:11;;;;;;;;;54.00;43.25;;;;;8.43;80.79;103134.81;4973068;28;11546;-71
2022/03/26 04:11:38;;;;;;;;;57.25;45.00;;;;;8.44;80.77;103138.38;4972954;28;11613;-73
2022/03/26 04:14:06;;;;;;;;;52.75;43.75;;;;;8.38;80.54;103131.59;4973024;28;11598;-70
2022/03/26 04:16:32;;;;;;;;;51.00;30.75;;;;;8.27;80.93;103132.41;4971611;28;11748;-72
2022/03/26 04:18:59;;;;;;;;;55.00;44.00;;;;;8.22;81.16;103131.03;4973041;28;11542;-71
2022/03/26 04:21:26;;;;;;;;;54.50;42.75;;;;;8.18;81.09;103137.63;4972476;28;11620;-71
2022/03/26 04:23:52;;;;;;;;;61.00;44.50;;;;;8.19;81.39;103137.53;4972862;28;11777;-72
2022/03/26 04:26:19;;;;;;;;;60.00;44.00;;;;;8.09;80.76;103136.50;4972446;28;11768;-71
2022/03/26 04:28:46;;;;;;;;;58.25;43.75;;;;;8.01;80.62;103131.69;4972123;28;11600;-71
2022/03/26 04:31:12;;;;;;;;;52.75;42.00;;;;;8.01;80.57;103147.88;4972452;28;11685;-72
2022/03/26 04:33:39;;;;;;;;;54.00;45.75;;;;;7.98;80.29;103140.03;4972190;28;12368;-71
2022/03/26 04:36:06;;;;;;;;;51.00;41.00;;;;;7.89;80.74;103143.38;4973486;28;11531;-71
2022/03/26 04:38:33;;;;;;;;;64.00;49.75;;;;;7.84;80.84;103144.72;4973141;28;12470;-71
2022/03/26 04:40:59;;;;;;;;;55.00;45.25;;;;;7.77;80.77;103146.16;4971786;28;11627;-71
2022/03/26 04:43:26;;;;;;;;;62.75;47.75;;;;;7.74;80.60;103143.69;4970300;28;11635;-72
2022/03/26 04:45:52;;;;;;;;;60.25;46.25;;;;;7.68;80.66;103151.28;4972803;28;11773;-71
2022/03/26 04:48:18;;;;;;;;;58.00;46.50;;;;;7.63;81.11;103144.47;4972798;28;11735;-71
2022/03/26 04:50:45;;;;;;;;;62.25;48.50;;;;;7.59;81.29;103137.59;4972557;28;11603;-71
2022/03/26 04:53:13;;;;;;;;;53.75;45.00;;;;;7.56;81.05;103141.38;4971097;28;11652;-72
2022/03/26 04:55:40;;;;;;;;;64.25;49.50;;;;;7.53;81.07;103133.50;4970742;28;11748;-72
2022/03/26 04:58:08;;;;;;;;;52.50;43.25;;;;;7.53;81.23;103136.22;4972563;28;11627;-71
2022/03/26 05:00:34;;;;;;;;;55.25;47.75;;;;;7.46;81.14;103140.34;4973057;28;11624;-72
2022/03/26 05:03:01;;;;;;;;;46.00;39.75;;;;;7.42;81.15;103136.13;4972143;28;11681;-73
2022/03/26 05:05:28;;;;;;;;;51.50;44.75;;;;;7.41;81.33;103129.88;4971577;28;11639;-73
2022/03/26 05:07:55;;;;;;;;;53.50;45.50;;;;;7.38;81.19;103123.84;4972434;28;11704;-71
2022/03/26 05:10:24;;;;;;;;;59.50;45.75;;;;;7.40;80.62;103125.44;4993969;23;11681;-71
2022/03/26 05:12:51;;;;;;;;;60.50;48.00;;;;;7.36;80.65;103133.88;4987928;28;11641;-71
2022/03/26 05:15:21;;;;;;;;;56.25;47.75;;;;;7.26;81.04;103128.31;4972414;28;11613;-71
2022/03/26 05:17:48;;;;;;;;;61.00;49.50;;;;;7.22;81.03;103129.50;4970584;28;11768;-72
2022/03/26 05:20:14;;;;;;;;;62.75;48.00;;;;;7.22;80.96;103134.03;4980957;28;11637;-71
2022/03/26 05:22:42;;;;;;;;;60.00;45.50;;;;;7.17;81.09;103137.03;4972616;28;11649;-70
2022/03/26 05:25:09;;;;;;;;;48.75;45.75;;;;;7.18;81.21;103133.38;4979444;28;11689;-71
2022/03/26 05:27:36;;;;;;;;;66.25;50.50;;;;;7.15;81.67;103133.59;4961135;28;11569;-71
2022/03/26 05:30:06;;;;;;;;;51.50;45.50;;;;;7.12;81.44;103131.13;4980892;28;11614;-71
2022/03/26 05:32:33;;;;;;;;;44.00;37.75;;;;;7.21;81.40;103135.88;4981490;28;11603;-70
2022/03/26 05:34:59;;;;;;;;;65.75;49.25;;;;;7.15;81.42;103138.13;4989930;28;11569;-70
2022/03/26 05:37:26;;;;;;;;;54.50;42.50;;;;;7.16;81.24;103139.84;4990592;28;11613;-70
2022/03/26 05:39:52;;;;;;;;;57.00;47.50;;;;;7.14;81.75;103139.09;4979130;28;11639;-71
2022/03/26 05:42:19;;;;;;;;;61.75;47.50;;;;;7.15;81.70;103141.66;4986192;28;11718;-71
2022/03/26 05:44:45;;;;;;;;;65.75;51.50;;;;;7.13;81.62;103137.38;4979482;28;12376;-71
2022/03/26 05:47:12;;;;;;;;;56.50;45.00;;;;;7.14;81.55;103144.47;4973396;28;12427;-71
2022/03/26 05:49:38;;;;;;;;;56.25;48.00;;;;;7.17;81.50;103138.88;4980597;28;12679;-70
2022/03/26 05:52:05;;;;;;;;;51.00;46.50;;;;;7.20;81.51;103139.53;4960710;28;11676;-70
2022/03/26 05:54:32;;;;;;;;;52.00;45.00;;;;;7.24;81.21;103148.25;4976809;28;12370;-70
2022/03/26 05:56:58;;;;;;;;;60.50;48.25;;;;;7.24;81.14;103150.94;4971594;28;11628;-70
2022/03/26 05:59:26;;;;;;;;;57.00;47.00;;;;;7.26;81.56;103152.56;4976108;28;11614;-70
2022/03/26 06:01:54;;;;;;;;;50.50;41.25;;;;;7.66;80.91;103155.03;4977952;28;11695;-70
2022/03/26 06:04:23;;;;;;;;;56.25;48.25;;;;;7.98;79.79;103153.50;4985269;28;11642;-70
2022/03/26 06:06:50;;;;;;;;;60.50;47.25;;;;;8.48;77.50;103153.38;4977324;28;11722;-70
2022/03/26 06:09:17;;;;;;;;;59.50;45.75;;;;;8.50;75.82;103149.56;4975670;28;11749;-70
2022/03/26 06:11:44;;;;;;;;;58.00;46.75;;;;;8.41;75.58;103152.94;4978954;28;11619;-71
2022/03/26 06:14:10;;;;;;;;;57.75;49.00;;;;;8.38;76.21;103155.88;4969571;28;11635;-70
2022/03/26 06:16:37;;;;;;;;;64.75;47.25;;;;;8.42;76.23;103159.22;4971269;28;11636;-70
2022/03/26 06:19:03;;;;;;;;;57.00;47.00;;;;;8.33;76.60;103172.44;4969178;28;11619;-74
2022/03/26 06:21:30;;;;;;;;;60.75;44.00;;;;;8.86;76.33;103175.53;4978114;28;11585;-70
2022/03/26 06:23:58;;;;;;;;;63.50;48.00;;;;;9.56;72.35;103183.41;4975959;28;11663;-70
2022/03/26 06:26:28;;;;;;;;;45.25;41.75;;;;;9.25;72.68;103179.63;4986973;28;11638;-69
2022/03/26 06:28:54;;;;;;;;;58.50;46.75;;;;;9.24;72.75;103179.75;4978624;28;11648;-69
2022/03/26 06:31:21;;;;;;;;;61.75;48.50;;;;;9.17;73.70;103184.78;4986029;28;11617;-69
2022/03/26 06:33:48;;;;;;;;;52.50;46.50;;;;;9.22;73.71;103176.31;4971136;28;11627;-71
2022/03/26 06:36:15;;;;;;;;;55.75;43.50;;;;;9.32;73.75;103185.38;4978900;28;11573;-70
2022/03/26 06:38:44;;;;;;;;;55.00;45.75;;;;;9.54;73.05;103184.50;4986184;28;11652;-69
2022/03/26 06:41:13;;;;;;;;;55.50;45.00;;;;;9.78;72.23;103184.34;4976540;28;11717;-72
2022/03/26 06:43:41;;;;;;;;;51.25;44.00;;;;;9.99;71.93;103187.13;4978899;28;11606;-70
2022/03/26 06:46:08;;;;;;;;;58.00;42.75;;;;;10.37;71.05;103189.34;4970935;28;11653;-69
2022/03/26 06:48:36;;;;;;;;;45.00;40.25;;;;;10.73;69.54;103191.63;4975062;28;11535;-69
2022/03/26 06:51:04;;;;;;;;;52.00;43.00;;;;;10.95;69.32;103196.06;4987132;28;11569;-69
2022/03/26 06:53:33;;;;;;;;;47.25;36.50;;;;;10.92;69.20;103207.16;4983782;28;11556;-69
2022/03/26 06:56:00;;;;;;;;;58.00;44.50;;;;;10.85;70.04;103197.81;4980593;28;11629;-70
2022/03/26 06:58:27;;;;;;;;;57.75;44.75;;;;;10.83;70.69;103207.09;4955844;28;11604;-70
2022/03/26 07:00:54;;;;;;;;;65.75;48.75;;;;;10.79;71.08;103201.94;4982059;28;11578;-70
2022/03/26 07:03:20;;;;;;;;;66.50;48.50;;;;;10.83;71.81;103199.81;4979951;28;11590;-70
2022/03/26 07:05:48;;;;;;;;;61.75;48.00;;;;;10.88;71.85;103197.56;4984293;28;11539;-69
2022/03/26 07:08:15;;;;;;;;;57.75;47.25;;;;;10.98;71.84;103200.34;4993836;28;11633;-72
2022/03/26 07:10:44;;;;;;;;;67.25;52.75;;;;;11.14;71.27;103199.84;4987131;28;11555;-70
2022/03/26 07:13:12;;;;;;;;;71.75;54.50;;;;;11.31;71.29;103207.34;4993707;28;11623;-70
2022/03/26 07:15:38;;;;;;;;;62.00;51.25;;;;;11.44;70.51;103208.00;4968181;28;11674;-71
2022/03/26 07:18:05;;;;;;;;;62.75;48.50;;;;;11.52;70.43;103207.31;4982380;28;11625;-72
2022/03/26 07:20:32;;;;;;;;;70.25;53.00;;;;;11.57;70.42;103214.03;4989504;28;11607;-69
2022/03/26 07:22:58;;;;;;;;;69.50;54.25;;;;;11.74;69.73;103217.09;4988994;28;11641;-69
2022/03/26 07:25:25;;;;;;;;;66.25;52.00;;;;;11.92;69.67;103218.19;4985974;28;11609;-70
2022/03/26 07:27:51;;;;;;;;;69.00;52.25;;;;;12.02;68.74;103214.47;4974157;28;11626;-69
2022/03/26 07:30:19;;;;;;;;;73.50;54.25;;;;;12.06;69.46;103217.75;4965080;28;11690;-71
2022/03/26 07:32:46;;;;;;;;;60.50;47.00;;;;;12.25;68.49;103223.22;4980667;28;11634;-71
2022/03/26 07:35:12;;;;;;;;;70.75;56.25;;;;;12.22;68.93;103219.94;4972776;28;11576;-69
2022/03/26 07:37:39;;;;;;;;;70.50;55.75;;;;;12.34;68.47;103229.66;4973742;28;11577;-68
2022/03/26 07:40:11;;;;;;;;;71.50;56.00;;;;;12.50;68.03;103221.81;4983241;28;11622;-69
2022/03/26 07:42:37;;;;;;;;;72.50;55.75;;;;;12.71;67.34;103231.69;4985988;28;12344;-69
2022/03/26 07:45:04;;;;;;;;;70.75;52.25;;;;;12.85;66.53;103229.34;4979448;28;11640;-71
2022/03/26 07:47:34;;;;;;;;;77.50;57.75;;;;;12.44;67.24;103225.09;4973382;28;11640;-70
2022/03/26 07:50:02;;;;;;;;;77.50;59.00;;;;;12.72;66.47;103230.66;4974112;28;11570;-69
2022/03/26 07:52:28;;;;;;;;;72.75;56.25;;;;;12.80;65.80;103233.50;4995647;28;11586;-72
2022/03/26 07:54:55;;;;;;;;;70.50;55.50;;;;;12.66;67.02;103233.97;4977841;28;11618;-70
2022/03/26 07:57:21;;;;;;;;;74.00;57.75;;;;;12.57;66.83;103243.81;4963537;28;11662;-70
2022/03/26 07:59:48;;;;;;;;;78.00;59.75;;;;;12.34;66.68;103237.81;4954057;28;11572;-70
2022/03/26 08:02:14;;;;;;;;;76.75;57.25;;;;;12.53;66.80;103248.69;4969606;28;11628;-71
2022/03/26 08:04:41;;;;;;;;;77.50;57.00;;;;;12.35;66.13;103253.09;4974788;28;11634;-70
2022/03/26 08:07:08;;;;;;;;;66.75;52.50;;;;;13.05;65.38;103243.78;4979482;28;11671;-69
2022/03/26 08:09:34;;;;;;;;;68.00;53.75;;;;;13.40;61.54;103243.16;4989915;28;11543;-69
2022/03/26 08:12:01;;;;;;;;;61.50;48.25;;;;;13.71;59.48;103249.19;4979609;28;11613;-71
2022/03/26 08:14:28;;;;;;;;;67.25;54.00;;;;;13.33;59.86;103252.03;4974617;28;11653;-70
2022/03/26 08:16:54;;;;;;;;;69.25;56.25;;;;;13.71;59.96;103251.91;4974720;28;11546;-69
2022/03/26 08:19:21;;;;;;;;;68.25;52.25;;;;;13.76;58.20;103267.78;4980840;28;11599;-71
2022/03/26 08:21:48;;;;;;;;;66.75;48.25;;;;;14.05;57.02;103259.44;4980401;28;11642;-70
2022/03/26 08:24:17;;;;;;;;;62.00;51.50;;;;;14.19;56.71;103260.81;4977978;28;12420;-69
2022/03/26 08:26:44;;;;;;;;;67.50;52.00;;;;;14.10;55.26;103268.88;4963664;28;11564;-70
2022/03/26 08:29:11;;;;;;;;;65.50;52.00;;;;;14.43;53.69;103277.44;4957386;28;11671;-70
2022/03/26 08:31:37;;;;;;;;;64.75;49.75;;;;;14.23;53.66;103278.56;4990987;28;11606;-69
2022/03/26 08:34:04;;;;;;;;;62.25;48.25;;;;;14.23;52.79;103286.72;4983874;28;11568;-69
2022/03/26 08:36:30;;;;;;;;;65.75;48.75;;;;;14.60;52.08;103282.03;4978529;28;11604;-69
2022/03/26 08:38:57;;;;;;;;;67.25;50.25;;;;;14.35;51.39;103288.22;4975077;28;11558;-69
2022/03/26 08:41:24;;;;;;;;;57.75;45.25;;;;;14.49;52.49;103290.44;4983524;28;11661;-72
2022/03/26 08:43:51;;;;;;;;;68.50;53.75;;;;;14.80;53.03;103284.59;4992161;28;11343;-69
2022/03/26 08:46:21;;;;;;;;;66.50;49.75;;;;;14.83;53.05;103290.59;4990470;28;11619;-69
2022/03/26 08:48:50;;;;;;;;;65.00;50.50;;;;;15.17;52.53;103289.88;4991762;28;11377;-73
2022/03/26 08:51:17;;;;;;;;;70.50;54.50;;;;;14.36;52.89;103295.38;4956917;28;11714;-69
2022/03/26 08:53:44;;;;;;;;;72.00;54.50;;;;;15.02;51.57;103284.09;4976312;28;11696;-70
2022/03/26 08:56:12;;;;;;;;;65.25;49.75;;;;;15.32;50.67;103282.78;4983143;28;11599;-71
2022/03/26 08:58:39;;;;;;;;;66.75;51.25;;;;;15.16;53.96;103286.28;4980372;28;11344;-69
2022/03/26 09:01:07;;;;;;;;;60.00;48.25;;;;;15.75;51.96;103284.63;4983261;28;11726;-70
2022/03/26 09:03:37;;;;;;;;;69.00;53.75;;;;;15.79;51.83;103283.25;4970952;28;10980;-70
2022/03/26 09:06:08;;;;;;;;;79.25;57.75;;;;;15.23;54.21;103281.03;4987080;28;11560;-72
2022/03/26 09:08:35;;;;;;;;;67.25;52.00;;;;;15.79;51.00;103283.25;4986265;28;11647;-70
2022/03/26 09:11:04;;;;;;;;;70.50;55.00;;;;;15.86;51.94;103284.34;4971119;28;11567;-70
2022/03/26 09:13:31;;;;;;;;;66.25;50.00;;;;;16.10;50.83;103291.75;4971497;28;11581;-70
2022/03/26 09:15:58;;;;;;;;;71.00;54.25;;;;;15.96;49.19;103298.72;4969800;28;11172;-70
2022/03/26 09:18:26;;;;;;;;;68.25;55.25;;;;;16.19;49.83;103293.50;4972008;28;11680;-70
2022/03/26 09:20:53;;;;;;;;;65.25;54.00;;;;;16.17;49.59;103290.09;4949963;28;11623;-71
2022/03/26 09:23:20;;;;;;;;;74.25;56.50;;;;;15.79;49.72;103296.06;4962898;28;11568;-69
2022/03/26 09:25:46;;;;;;;;;76.75;53.25;;;;;15.81;50.29;103294.88;4983485;28;11560;-69
2022/03/26 09:28:13;;;;;;;;;70.25;56.00;;;;;16.11;48.83;103298.97;4988943;28;11740;-69
2022/03/26 09:30:39;;;;;;;;;68.75;52.25;;;;;16.23;49.55;103292.16;4970508;28;11698;-70
2022/03/26 09:33:06;;;;;;;;;71.00;54.75;;;;;16.37;48.20;103304.31;4971781;28;11139;-69
2022/03/26 09:35:33;;;;;;;;;76.25;59.25;;;;;15.66;49.51;103296.53;4965718;28;11407;-69
2022/03/26 09:38:00;;;;;;;;;72.50;56.75;;;;;15.24;51.31;103288.19;4980081;28;11548;-69
2022/03/26 09:40:26;;;;;;;;;68.75;53.50;;;;;16.13;50.50;103296.91;4990850;28;11577;-70
2022/03/26 09:42:53;;;;;;;;;78.50;59.00;;;;;16.06;50.09;103295.84;4975309;28;11696;-70
2022/03/26 09:45:20;;;;;;;;;65.00;50.25;;;;;16.43;50.42;103295.44;4965141;28;11611;-70
2022/03/26 09:47:47;;;;;;;;;74.75;57.00;;;;;16.42;50.45;103287.41;4996474;28;11589;-70
2022/03/26 09:50:14;;;;;;;;;75.75;58.75;;;;;16.64;49.90;103302.31;4989709;28;11623;-69
2022/03/26 09:52:40;;;;;;;;;73.00;54.75;;;;;16.85;49.81;103291.75;4980205;28;11566;-69
2022/03/26 09:55:11;;;;;;;;;70.50;56.50;;;;;17.00;49.34;103289.19;4978661;28;11375;-69
2022/03/26 09:57:39;;;;;;;;;72.25;56.25;;;;;16.85;49.26;103283.53;4987487;28;11610;-70
2022/03/26 10:00:07;;;;;;;;;72.75;55.75;;;;;16.91;49.18;103286.47;4975358;28;11528;-72
2022/03/26 10:02:38;;;;;;;;;72.50;56.00;;;;;16.98;48.07;103291.25;4982184;28;11582;-70
2022/03/26 10:05:07;;;;;;;;;69.50;54.50;;;;;17.11;48.28;103286.97;4954865;28;11740;-70
2022/03/26 10:07:34;;;;;;;;;63.75;49.00;;;;;17.54;47.61;103288.41;4966871;28;11753;-71
2022/03/26 10:10:03;;;;;;;;;69.00;55.00;;;;;17.49;47.30;103279.88;4951715;28;11031;-70
2022/03/26 10:12:30;;;;;;;;;75.50;57.25;;;;;17.43;47.25;103277.00;4954514;28;11374;-70
2022/03/26 10:14:57;;;;;;;;;78.25;58.00;;;;;17.53;46.62;103278.50;4956309;28;11560;-73
2022/03/26 10:17:34;;;;;;;;;61.25;52.50;;;;;17.67;46.62;103276.97;4976059;28;11579;-69
2022/03/26 10:20:21;;;;;;;;;64.50;51.50;;;;;17.77;46.04;103280.34;4959345;28;11773;-71
2022/03/26 10:22:48;;;;;;;;;70.25;54.50;;;;;17.73;45.70;103281.72;4978536;28;11165;-70
2022/03/26 10:25:16;;;;;;;;;67.75;49.50;;;;;17.94;45.11;103278.41;4975344;28;11195;-70
2022/03/26 10:27:56;;;;;;;;;62.00;49.75;;;;;17.86;44.61;103275.69;4975285;28;11086;-71
2022/03/26 10:33:30;;;;;;;;;60.50;48.50;;;;;18.17;44.32;103281.19;4994574;28;11175;-70
2022/03/26 10:36:00;;;;;;;;;65.50;52.50;;;;;17.70;43.81;103278.50;4983152;28;11022;-69
2022/03/26 10:38:38;;;;;;;;;58.50;48.25;;;;;17.95;43.70;103276.50;4986146;28;11161;-70
2022/03/26 10:41:07;;;;;;;;;68.00;49.50;;;;;17.88;43.14;103276.38;4987231;28;11436;-69
2022/03/26 10:43:36;;;;;;;;;61.50;47.50;;;;;17.86;43.62;103264.75;4980947;28;10701;-69
2022/03/26 10:46:03;;;;;;;;;65.50;48.50;;;;;17.87;43.90;103263.69;4975710;28;10725;-70
2022/03/26 10:48:33;;;;;;;;;60.00;48.00;;;;;18.01;42.82;103253.84;4965828;28;11063;-70
2022/03/26 10:51:05;;;;;;;;;56.75;44.75;;;;;18.04;42.14;103265.31;4985737;28;10535;-71
2022/03/26 10:53:39;;;;;;;;;64.00;48.50;;;;;17.96;42.82;103256.28;4994120;28;10509;-69
2022/03/26 10:56:09;;;;;;;;;49.75;42.00;;;;;17.75;41.23;103255.00;4980148;28;10465;-70
2022/03/26 10:58:36;;;;;;;;;56.75;44.25;;;;;17.93;41.50;103254.75;4981638;28;11002;-70
2022/03/26 11:01:03;;;;;;;;;57.25;45.25;;;;;17.68;42.48;103255.91;4972773;28;10238;-68
2022/03/26 11:03:31;;;;;;;;;52.00;43.75;;;;;17.98;42.01;103252.31;4964209;28;11121;-70
2022/03/26 11:05:58;;;;;;;;;54.75;43.25;;;;;17.99;41.68;103256.78;4992717;28;10693;-70
2022/03/26 11:08:30;;;;;;;;;58.25;46.00;;;;;17.41;41.91;103252.53;4993691;28;10528;-69
2022/03/26 11:10:59;;;;;;;;;49.50;43.00;;;;;17.94;41.97;103261.94;4973240;28;11277;-70
2022/03/26 11:13:28;;;;;;;;;56.75;43.25;;;;;17.89;41.42;103250.66;4979389;28;10367;-70
2022/03/26 11:15:58;;;;;;;;;48.00;39.50;;;;;18.02;40.75;103250.94;4967292;28;10292;-69
2022/03/26 11:18:44;;;;;;;;;56.50;42.75;;;;;17.43;41.47;103255.09;4981946;28;10207;-71